Time;durP1;ratioP1;P1;durP2;ratioP2;P2;SDS_P1;SDS_P2;PMS_P1;PMS_P2;Temp;Humidity;BMP_temperature;BMP_pressure;BME280_temperature;BME280_humidity;BME280_pressure;Samples;Min_cycle;Max_cycle;Signal;HPM_P1;HPM_P2
2022/09/13 00:01:53;;;;;;;9.80;8.50;;;;;;;11.46;76.93;100191.26;106879;1281;22513;-80
2022/09/13 00:04:20;;;;;;;10.40;8.10;;;;;;;11.45;76.89;100194.80;106611;1281;24253;-79
2022/09/13 00:06:47;;;;;;;11.70;8.60;;;;;;;11.43;76.67;100196.07;106260;1281;24041;-77
2022/09/13 00:09:14;;;;;;;11.40;8.30;;;;;;;11.42;76.66;100199.44;106279;1274;22798;-78
2022/09/13 00:11:41;;;;;;;11.40;8.10;;;;;;;11.39;76.57;100193.66;106683;1274;22692;-80
2022/09/13 00:14:10;;;;;;;11.90;8.30;;;;;;;11.35;76.45;100196.01;106503;1274;22738;-79
2022/09/13 00:16:37;;;;;;;9.20;8.00;;;;;;;11.30;76.51;100192.73;106103;1274;23969;-80
2022/09/13 00:19:04;;;;;;;12.30;8.00;;;;;;;11.30;76.82;100190.80;106986;1274;22531;-86
2022/09/13 00:21:31;;;;;;;11.80;8.70;;;;;;;11.25;76.77;100190.16;106368;1281;22645;-78
2022/09/13 00:23:58;;;;;;;9.00;8.10;;;;;;;11.16;76.80;100188.54;105959;1281;22540;-80
2022/09/13 00:26:27;;;;;;;9.20;8.30;;;;;;;11.10;77.21;100191.27;106159;1281;24356;-79
2022/09/13 00:28:56;;;;;;;9.20;8.10;;;;;;;11.11;77.42;100190.91;105814;1281;22559;-81
2022/09/13 00:31:26;;;;;;;8.90;7.10;;;;;;;11.14;77.49;100191.21;105669;1281;25417;-79
2022/09/13 00:33:54;;;;;;;8.60;7.70;;;;;;;11.13;77.45;100192.98;105480;1281;25674;-81
2022/09/13 00:36:20;;;;;;;7.80;7.10;;;;;;;11.14;77.45;100193.86;105640;1281;25215;-77
2022/09/13 00:38:47;;;;;;;8.20;7.40;;;;;;;11.14;77.51;100195.44;105476;1280;22627;-81
2022/09/13 00:41:17;;;;;;;10.60;8.30;;;;;;;11.14;77.54;100189.09;105984;1274;25397;-81
2022/09/13 00:43:50;;;;;;;8.70;7.80;;;;;;;11.14;77.48;100187.34;106009;1276;22667;-84
2022/09/13 00:46:30;;;;;;;10.90;7.80;;;;;;;11.14;77.40;100187.69;105526;1281;25482;-81
2022/09/13 00:49:30;;;;;;;8.20;7.40;;;;;;;11.09;77.34;100180.71;105701;1280;22660;-84
2022/09/13 00:52:02;;;;;;;8.60;7.40;;;;;;;11.13;77.21;100189.98;105668;1281;24113;-80
2022/09/13 00:54:44;;;;;;;10.70;8.10;;;;;;;11.11;77.15;100187.02;105568;1281;24360;-85
2022/09/13 00:57:14;;;;;;;8.70;7.80;;;;;;;11.09;77.14;100185.27;105837;1279;24703;-86
2022/09/13 00:59:52;;;;;;;8.40;7.60;;;;;;;11.02;76.80;100190.50;106192;1279;22537;-85
2022/09/13 01:02:20;;;;;;;7.90;7.10;;;;;;;10.88;76.93;100193.34;105849;1281;25508;-82
2022/09/13 01:04:49;;;;;;;9.10;7.30;;;;;;;10.83;77.25;100191.10;106344;1274;23923;-85
2022/09/13 01:07:17;;;;;;;11.20;7.30;;;;;;;10.82;77.37;100189.17;107105;1274;22827;-85
2022/09/13 01:09:48;;;;;;;8.30;7.50;;;;;;;10.78;77.47;100191.17;106877;1273;22557;-86
2022/09/13 01:12:24;;;;;;;8.40;7.60;;;;;;;10.74;77.55;100191.42;107044;1274;22478;-86
2022/09/13 01:14:52;;;;;;;9.80;7.70;;;;;;;10.70;77.74;100191.64;107089;1274;22566;-80
2022/09/13 01:17:19;;;;;;;8.60;7.80;;;;;;;10.67;77.88;100193.08;106150;1274;22559;-80
2022/09/13 01:19:46;;;;;;;9.90;7.30;;;;;;;10.64;78.03;100191.69;106032;1274;22561;-77
2022/09/13 01:23:07;;;;;;;9.00;7.60;;;;;;;10.63;77.91;100189.77;106057;1274;22560;-79
2022/09/13 01:25:43;;;;;;;9.90;7.70;;;;;;;10.54;78.06;100185.48;106275;1273;25354;-84
2022/09/13 01:28:47;;;;;;;10.80;8.40;;;;;;;10.49;78.37;100183.09;106338;1274;25535;-83
2022/09/13 01:31:29;;;;;;;10.20;8.50;;;;;;;10.41;78.50;100184.90;108524;1274;25927;-83
2022/09/13 01:34:21;;;;;;;9.00;8.10;;;;;;;10.32;78.63;100182.20;107137;1273;22748;-83
2022/09/13 01:37:32;;;;;;;10.00;9.00;;;;;;;10.25;79.13;100178.58;106074;1274;22789;-84
2022/09/13 01:40:11;;;;;;;11.20;8.60;;;;;;;10.26;79.35;100181.55;105651;1281;25440;-82
2022/09/13 01:43:06;;;;;;;10.90;9.70;;;;;;;10.26;79.57;100182.44;105702;1281;22718;-83
2022/09/13 01:45:44;;;;;;;10.60;9.50;;;;;;;10.24;79.70;100180.52;105703;1281;22516;-77
2022/09/13 01:48:15;;;;;;;9.30;8.40;;;;;;;10.25;79.92;100181.56;105583;1281;25295;-77
2022/09/13 01:50:50;;;;;;;9.30;7.80;;;;;;;10.27;79.83;100177.85;105616;1281;24250;-76
2022/09/13 01:53:24;;;;;;;12.20;8.10;;;;;;;10.32;79.69;100175.51;105615;1281;22561;-77
2022/09/13 01:56:22;;;;;;;10.60;8.50;;;;;;;10.33;79.65;100164.56;105513;1281;23486;-84
2022/09/13 01:58:54;;;;;;;9.50;8.10;;;;;;;10.41;79.55;100174.51;106021;1274;25380;-83
2022/09/13 02:01:32;;;;;;;9.30;8.30;;;;;;;10.41;79.18;100170.11;106169;1277;22615;-84
2022/09/13 02:04:05;;;;;;;11.60;8.50;;;;;;;10.39;78.91;100169.95;106255;1274;22545;-82
2022/09/13 02:06:45;;;;;;;10.10;8.20;;;;;;;10.37;78.72;100167.16;106676;1274;22501;-86
2022/09/13 02:09:18;;;;;;;11.10;7.70;;;;;;;10.35;78.66;100164.90;106425;1276;22685;-73
2022/09/13 02:11:53;;;;;;;9.00;7.70;;;;;;;10.36;78.48;100169.30;105963;1276;25506;-75
2022/09/13 02:14:40;;;;;;;11.80;8.40;;;;;;;10.36;78.26;100166.30;105873;1276;25569;-73
2022/09/13 02:17:11;;;;;;;;;;;;;;;10.32;78.13;100165.13;106021;1276;25392;-74
2022/09/13 02:19:51;;;;;;;10.00;8.20;;;;;;;10.24;78.16;100156.77;105954;1276;23945;-72
2022/09/13 02:22:25;;;;;;;9.70;8.10;;;;;;;10.23;78.38;100160.46;105938;1276;25507;-73
2022/09/13 02:24:57;;;;;;;10.90;9.30;;;;;;;10.23;78.38;100161.70;106002;1276;25320;-74
2022/09/13 02:27:31;;;;;;;9.20;8.10;;;;;;;10.19;78.41;100150.48;105947;1277;23968;-77
2022/09/13 02:30:03;;;;;;;10.50;8.50;;;;;;;10.22;78.39;100151.85;106164;1276;24093;-75
2022/09/13 02:32:40;;;;;;;9.80;8.80;;;;;;;10.22;78.27;100150.98;105868;1278;22539;-79
2022/09/13 02:35:36;;;;;;;9.20;8.30;;;;;;;10.21;78.15;100149.05;106323;1276;25378;-78
2022/09/13 02:38:16;;;;;;;9.60;8.10;;;;;;;10.19;78.12;100144.49;106259;1277;22532;-73
2022/09/13 02:40:52;;;;;;;10.20;9.10;;;;;;;10.16;77.94;100145.94;105870;1276;23128;-79
2022/09/13 02:43:26;;;;;;;9.00;8.10;;;;;;;10.15;78.24;100140.31;105729;1275;25379;-76
2022/09/13 02:46:23;;;;;;;7.80;7.10;;;;;;;10.14;78.19;100139.27;105694;1279;25324;-74
2022/09/13 02:49:15;;;;;;;8.40;7.30;;;;;;;10.13;77.90;100137.53;105613;1279;22664;-74
2022/09/13 02:51:45;;;;;;;9.30;8.30;;;;;;;10.13;77.77;100140.16;105712;1281;22553;-73
2022/09/13 02:54:18;;;;;;;8.70;7.90;;;;;;;10.11;77.63;100142.83;105522;1279;23854;-74
2022/09/13 02:56:54;;;;;;;11.40;8.30;;;;;;;10.08;77.54;100134.95;105608;1279;24237;-75
2022/09/13 02:59:23;;;;;;;9.60;8.20;;;;;;;10.05;77.56;100133.41;105542;1281;22869;-73
2022/09/13 03:02:04;;;;;;;9.90;8.10;;;;;;;9.99;77.43;100130.48;105648;1280;25403;-74
2022/09/13 03:04:33;;;;;;;8.10;7.20;;;;;;;9.96;77.49;100127.68;105695;1276;22542;-80
2022/09/13 03:07:03;;;;;;;10.50;8.80;;;;;;;9.94;77.49;100129.13;105794;1276;25370;-74
2022/09/13 03:09:31;;;;;;;9.30;7.70;;;;;;;9.90;77.32;100123.88;105778;1276;24288;-83
2022/09/13 03:12:09;;;;;;;9.10;8.00;;;;;;;9.85;77.45;100119.89;105808;1276;24257;-73
2022/09/13 03:14:54;;;;;;;9.70;7.90;;;;;;;9.86;77.27;100123.40;105846;1276;24309;-70
2022/09/13 03:17:27;;;;;;;10.00;8.10;;;;;;;9.79;77.28;100116.45;105800;1276;22562;-70
2022/09/13 03:20:08;;;;;;;11.10;8.60;;;;;;;9.80;77.29;100117.83;105960;1276;22556;-73
2022/09/13 03:23:07;;;;;;;8.70;7.80;;;;;;;9.77;77.14;100116.46;105868;1274;22857;-73
2022/09/13 03:25:52;;;;;;;9.50;8.00;;;;;;;9.73;77.23;100112.98;105900;1276;22551;-77
2022/09/13 03:28:22;;;;;;;8.90;7.40;;;;;;;9.72;77.12;100112.48;105905;1276;24387;-74
2022/09/13 03:30:56;;;;;;;8.90;8.00;;;;;;;9.70;77.02;100111.96;105936;1276;26553;-73
2022/09/13 03:33:49;;;;;;;9.50;7.80;;;;;;;9.67;77.07;100118.31;106030;1274;25367;-73
2022/09/13 03:36:27;;;;;;;8.60;7.70;;;;;;;9.62;77.03;100115.20;105838;1276;25347;-74
2022/09/13 03:39:39;;;;;;;9.20;8.30;;;;;;;9.58;77.04;100110.13;105986;1276;22547;-74
2022/09/13 03:42:31;;;;;;;9.10;8.20;;;;;;;9.54;77.05;100110.87;105816;1276;24235;-70
2022/09/13 03:45:00;;;;;;;9.30;8.00;;;;;;;9.49;77.11;100110.04;105926;1276;22703;-72
2022/09/13 03:47:31;;;;;;;10.00;8.70;;;;;;;9.48;77.29;100107.77;105945;1274;24552;-70
2022/09/13 03:50:00;;;;;;;11.20;8.60;;;;;;;9.49;77.15;100107.23;105986;1275;22569;-69
2022/09/13 03:52:27;;;;;;;10.90;7.60;;;;;;;9.47;77.06;100108.83;105741;1276;24306;-72
2022/09/13 03:54:54;;;;;;;10.30;8.20;;;;;;;9.48;77.17;100104.60;105829;1276;25354;-72
2022/09/13 03:57:21;;;;;;;12.70;8.80;;;;;;;9.49;77.24;100102.30;105720;1278;25306;-72
2022/09/13 03:59:54;;;;;;;10.50;8.50;;;;;;;9.47;77.26;100098.29;105084;1281;22575;-73
2022/09/13 04:02:24;;;;;;;14.20;9.80;;;;;;;9.47;77.41;100096.88;105113;1281;22540;-75
2022/09/13 04:04:52;;;;;;;10.60;8.90;;;;;;;9.47;77.45;100098.63;105534;1281;24267;-76
2022/09/13 04:07:21;;;;;;;13.70;9.80;;;;;;;9.48;77.61;100095.46;105155;1281;22530;-74
2022/09/13 04:09:49;;;;;;;16.80;11.30;;;;;;;9.52;77.75;100089.62;105550;1281;25396;-77
2022/09/13 04:12:17;;;;;;;16.00;10.90;;;;;;;9.55;77.93;100089.23;105249;1282;23951;-76
2022/09/13 04:14:44;;;;;;;12.70;10.20;;;;;;;9.56;77.83;100088.34;105256;1281;24154;-75
2022/09/13 04:17:12;;;;;;;15.30;10.50;;;;;;;9.55;77.66;100085.20;105294;1279;25323;-76
2022/09/13 04:19:40;;;;;;;14.10;10.20;;;;;;;9.52;77.67;100090.15;106008;1274;23665;-74
2022/09/13 04:22:06;;;;;;;13.80;10.00;;;;;;;9.52;77.74;100092.43;105771;1276;22592;-75
2022/09/13 04:24:35;;;;;;;15.50;11.20;;;;;;;9.52;77.71;100092.27;105931;1276;23965;-75
2022/09/13 04:27:03;;;;;;;13.60;9.80;;;;;;;9.52;77.58;100097.00;105874;1276;22553;-73
2022/09/13 04:29:31;;;;;;;14.20;10.40;;;;;;;9.50;77.60;100097.72;105743;1276;24234;-74
2022/09/13 04:31:59;;;;;;;14.00;10.30;;;;;;;9.48;77.75;100093.88;105788;1276;22532;-75
2022/09/13 04:34:26;;;;;;;14.60;10.90;;;;;;;9.50;77.79;100094.92;105934;1274;25528;-75
2022/09/13 04:36:54;;;;;;;14.50;10.80;;;;;;;9.49;77.79;100097.02;105950;1276;25545;-77
2022/09/13 04:39:22;;;;;;;12.70;10.10;;;;;;;9.48;77.80;100099.67;105786;1275;25364;-75
2022/09/13 04:41:50;;;;;;;12.10;9.90;;;;;;;9.49;77.73;100096.51;106046;1274;24385;-76
2022/09/13 04:44:17;;;;;;;16.40;10.30;;;;;;;9.49;77.65;100095.27;105733;1276;25420;-75
2022/09/13 04:46:48;;;;;;;12.00;10.30;;;;;;;9.49;77.56;100095.80;105783;1276;22554;-76
2022/09/13 04:49:16;;;;;;;12.60;10.00;;;;;;;9.49;77.67;100096.85;105917;1276;22546;-76
2022/09/13 04:51:43;;;;;;;14.60;9.90;;;;;;;9.49;77.53;100098.61;106027;1276;22560;-75
2022/09/13 04:54:11;;;;;;;12.50;10.00;;;;;;;9.49;77.63;100100.19;105954;1276;25378;-75
2022/09/13 04:56:42;;;;;;;16.70;10.90;;;;;;;9.50;77.60;100095.62;105994;1276;23556;-82
2022/09/13 04:59:10;;;;;;;12.60;10.40;;;;;;;9.51;77.64;100096.48;105772;1275;22544;-78
2022/09/13 05:01:37;;;;;;;16.90;11.30;;;;;;;9.51;77.64;100096.48;105787;1276;24298;-79
2022/09/13 05:04:05;;;;;;;14.20;11.00;;;;;;;9.53;77.66;100093.66;105919;1276;25373;-76
2022/09/13 05:06:32;;;;;;;18.20;10.90;;;;;;;9.55;77.63;100095.21;105727;1274;24277;-78
2022/09/13 05:08:59;;;;;;;15.20;10.90;;;;;;;9.59;77.72;100091.66;105952;1276;22847;-79
2022/09/13 05:11:27;;;;;;;16.70;10.80;;;;;;;9.64;77.80;100089.86;105857;1276;22557;-79
2022/09/13 05:13:57;;;;;;;16.00;10.90;;;;;;;9.66;77.94;100083.15;105732;1276;22655;-80
2022/09/13 05:16:26;;;;;;;15.00;11.30;;;;;;;9.70;77.98;100086.11;106553;1276;22634;-77
2022/09/13 05:18:54;;;;;;;14.00;11.80;;;;;;;9.72;78.14;100080.80;106244;1276;24385;-76
2022/09/13 05:21:21;;;;;;;12.80;11.00;;;;;;;9.76;78.21;100079.69;106279;1276;25306;-78
2022/09/13 05:23:49;;;;;;;16.10;11.10;;;;;;;9.83;78.33;100082.27;106003;1276;25407;-77
2022/09/13 05:26:17;;;;;;;18.70;12.00;;;;;;;9.88;78.21;100081.34;105864;1276;22524;-78
2022/09/13 05:28:44;;;;;;;15.30;10.80;;;;;;;9.94;78.24;100082.85;105954;1276;23078;-86
2022/09/13 05:31:27;;;;;;;15.40;12.00;;;;;;;9.99;78.19;100088.96;106093;1276;22537;-75
2022/09/13 05:34:00;;;;;;;13.80;10.80;;;;;;;10.05;78.22;100093.48;106197;1274;24003;-80
2022/09/13 05:36:27;;;;;;;14.20;11.00;;;;;;;10.07;78.19;100091.85;106087;1274;22877;-79
2022/09/13 05:38:55;;;;;;;11.30;9.80;;;;;;;10.12;78.18;100088.98;106061;1276;25349;-81
2022/09/13 05:41:42;;;;;;;12.50;9.60;;;;;;;10.19;78.24;100086.61;106080;1274;25261;-77
2022/09/13 05:44:09;;;;;;;12.30;9.90;;;;;;;10.26;78.29;100087.92;105973;1281;25367;-77
2022/09/13 05:46:40;;;;;;;15.60;9.90;;;;;;;10.32;78.27;100079.57;106299;1281;25265;-76
2022/09/13 05:49:07;;;;;;;13.40;10.20;;;;;;;10.40;78.28;100079.11;105740;1281;22588;-80
2022/09/13 05:51:33;;;;;;;13.00;9.80;;;;;;;10.48;78.41;100076.05;105578;1281;25245;-76
2022/09/13 05:54:00;;;;;;;10.90;9.10;;;;;;;10.54;78.27;100070.52;105793;1281;25304;-75
2022/09/13 05:56:29;;;;;;;11.50;9.50;;;;;;;10.58;78.13;100067.48;105489;1281;25254;-80
2022/09/13 05:58:55;;;;;;;13.10;10.80;;;;;;;10.64;78.28;100063.33;105557;1281;25357;-79
2022/09/13 06:01:27;;;;;;;11.60;10.00;;;;;;;10.73;78.31;100063.39;105542;1281;25243;-78
2022/09/13 06:03:57;;;;;;;11.70;10.50;;;;;;;10.79;78.22;100062.23;105938;1275;23943;-80
2022/09/13 06:06:24;;;;;;;11.20;10.10;;;;;;;10.82;78.12;100058.48;106049;1275;22625;-77
2022/09/13 06:08:53;;;;;;;11.70;10.40;;;;;;;10.87;78.23;100056.29;106063;1274;22525;-80
2022/09/13 06:11:20;;;;;;;13.20;9.60;;;;;;;10.92;78.17;100053.75;105922;1276;22764;-80
2022/09/13 06:13:47;;;;;;;13.10;9.10;;;;;;;10.99;78.14;100056.11;106061;1276;22570;-79
2022/09/13 06:16:15;;;;;;;16.70;10.30;;;;;;;11.01;78.14;100056.23;106004;1274;22596;-78
2022/09/13 06:18:43;;;;;;;11.80;10.50;;;;;;;11.09;78.39;100056.29;105946;1276;22542;-81
2022/09/13 06:21:16;;;;;;;13.20;10.40;;;;;;;11.16;78.36;100054.60;106103;1274;25644;-81
2022/09/13 06:23:50;;;;;;;12.90;10.50;;;;;;;11.20;78.33;100058.58;106022;1276;26529;-76
2022/09/13 06:26:20;;;;;;;15.00;10.30;;;;;;;11.26;78.38;100052.11;106009;1274;22528;-81
2022/09/13 06:28:49;;;;;;;15.70;10.30;;;;;;;11.32;78.44;100053.09;105818;1276;24265;-80
2022/09/13 06:31:18;;;;;;;15.10;11.30;;;;;;;11.35;78.36;100050.39;106078;1274;22667;-80
2022/09/13 06:33:45;;;;;;;13.20;11.20;;;;;;;11.34;78.47;100052.88;106119;1275;22872;-79
2022/09/13 06:36:18;;;;;;;15.20;12.80;;;;;;;11.40;78.70;100055.08;105882;1275;25374;-80
2022/09/13 06:38:50;;;;;;;13.60;11.10;;;;;;;11.47;78.80;100055.98;106046;1274;22924;-77
2022/09/13 06:41:20;;;;;;;12.90;11.60;;;;;;;11.53;78.72;100058.88;106001;1275;24399;-78
2022/09/13 06:43:56;;;;;;;12.10;10.90;;;;;;;11.59;78.86;100054.73;105805;1276;22477;-79
2022/09/13 06:46:25;;;;;;;15.30;11.30;;;;;;;11.66;78.76;100053.89;106065;1274;22702;-81
2022/09/13 06:48:53;;;;;;;17.10;12.00;;;;;;;11.70;78.73;100054.88;106070;1276;24233;-79
2022/09/13 06:51:22;;;;;;;13.10;11.70;;;;;;;11.74;78.79;100052.67;106160;1276;22573;-80
2022/09/13 06:53:50;;;;;;;15.50;12.00;;;;;;;11.79;78.91;100049.77;106305;1273;24020;-79
2022/09/13 06:56:20;;;;;;;12.80;11.20;;;;;;;11.87;79.10;100050.47;106297;1275;22663;-79
2022/09/13 06:58:50;;;;;;;12.80;11.00;;;;;;;11.98;79.11;100046.74;106135;1274;25452;-80
2022/09/13 07:01:19;;;;;;;11.60;10.40;;;;;;;12.08;78.96;100041.25;105950;1275;25256;-82
2022/09/13 07:03:53;;;;;;;12.80;9.80;;;;;;;12.19;78.77;100037.87;106225;1275;24213;-78
2022/09/13 07:06:28;;;;;;;11.50;10.10;;;;;;;12.26;78.48;100040.01;106293;1276;22742;-80
2022/09/13 07:08:57;;;;;;;9.90;9.00;;;;;;;12.32;78.29;100045.70;106069;1274;23400;-80
2022/09/13 07:11:28;;;;;;;12.00;10.10;;;;;;;12.42;78.19;100041.63;106052;1276;22691;-77
2022/09/13 07:13:57;;;;;;;13.70;10.30;;;;;;;12.52;78.07;100038.55;106050;1274;23334;-77
2022/09/13 07:16:26;;;;;;;14.90;9.80;;;;;;;12.63;77.97;100033.17;106046;1276;25250;-77
2022/09/13 07:18:59;;;;;;;11.70;10.00;;;;;;;12.73;77.51;100029.93;105964;1276;23091;-80
2022/09/13 07:21:27;;;;;;;10.40;9.30;;;;;;;12.75;76.99;100033.77;105743;1277;25610;-77
2022/09/13 07:23:55;;;;;;;9.30;8.30;;;;;;;12.78;76.70;100034.23;105683;1277;24257;-79
2022/09/13 07:26:26;;;;;;;16.50;9.00;;;;;;;12.84;76.49;100035.16;105599;1278;22631;-80
2022/09/13 07:28:56;;;;;;;12.70;7.80;;;;;;;12.88;75.95;100028.18;105699;1276;25345;-78
2022/09/13 07:31:31;;;;;;;8.10;7.30;;;;;;;12.93;75.84;100030.00;105581;1279;22560;-76
2022/09/13 07:34:00;;;;;;;10.80;7.80;;;;;;;13.01;75.49;100026.09;105593;1278;22562;-79
2022/09/13 07:36:29;;;;;;;10.30;7.40;;;;;;;13.07;74.98;100027.70;105611;1278;22553;-77
2022/09/13 07:38:57;;;;;;;9.10;7.40;;;;;;;13.10;74.92;100029.05;105700;1279;25612;-80
2022/09/13 07:41:26;;;;;;;10.50;7.10;;;;;;;13.18;74.09;100033.95;105610;1279;25169;-81
2022/09/13 07:43:54;;;;;;;8.70;7.00;;;;;;;13.23;73.85;100025.18;105681;1279;24234;-79
2022/09/13 07:46:26;;;;;;;6.40;5.60;;;;;;;13.30;73.76;100029.42;105826;1274;22596;-80
2022/09/13 07:48:55;;;;;;;7.10;6.40;;;;;;;13.38;73.14;100027.26;105729;1275;25520;-80
2022/09/13 07:51:24;;;;;;;8.20;6.90;;;;;;;13.47;73.34;100029.33;106026;1276;22554;-79
2022/09/13 07:53:55;;;;;;;7.90;6.70;;;;;;;13.55;73.04;100030.02;106031;1276;22627;-81
2022/09/13 07:56:30;;;;;;;7.30;5.70;;;;;;;13.67;72.74;100024.05;105915;1275;24212;-80
2022/09/13 07:59:04;;;;;;;10.00;7.00;;;;;;;13.79;72.60;100026.73;105926;1276;22589;-79
2022/09/13 08:01:41;;;;;;;7.10;6.40;;;;;;;13.88;72.09;100020.10;105720;1276;25315;-76
2022/09/13 08:04:16;;;;;;;10.60;6.90;;;;;;;14.02;71.57;100029.27;105971;1274;22630;-79
2022/09/13 08:06:45;;;;;;;6.70;6.10;;;;;;;14.12;70.91;100025.63;105994;1276;25549;-81
2022/09/13 08:09:13;;;;;;;8.10;7.30;;;;;;;14.22;70.50;100027.06;106017;1275;22662;-80
2022/09/13 08:11:44;;;;;;;8.40;6.00;;;;;;;14.32;70.43;100022.17;105862;1276;22621;-79
2022/09/13 08:14:13;;;;;;;4.80;4.30;;;;;;;14.43;69.19;100020.59;105964;1276;22548;-80
2022/09/13 08:16:40;;;;;;;5.10;4.00;;;;;;;14.51;67.95;100015.40;105928;1274;22538;-80
2022/09/13 08:19:11;;;;;;;9.60;4.20;;;;;;;14.55;66.81;100012.27;106032;1276;26622;-79
2022/09/13 08:21:40;;;;;;;12.20;5.60;;;;;;;14.63;67.41;100013.77;105655;1276;22547;-80
2022/09/13 08:24:12;;;;;;;7.20;5.90;;;;;;;14.77;67.80;100011.95;105820;1274;24340;-79
2022/09/13 08:26:39;;;;;;;6.50;5.30;;;;;;;14.93;67.36;100010.70;105913;1275;24079;-82
2022/09/13 08:29:06;;;;;;;7.30;4.90;;;;;;;15.04;67.30;100007.86;105902;1276;24237;-79
2022/09/13 08:31:34;;;;;;;7.00;4.90;;;;;;;15.14;66.59;100003.80;105931;1276;24825;-79
2022/09/13 08:34:01;;;;;;;4.80;4.20;;;;;;;15.27;66.54;100007.44;105849;1276;22649;-78
2022/09/13 08:36:28;;;;;;;6.50;4.70;;;;;;;15.36;65.49;100003.76;106019;1276;22581;-79
2022/09/13 08:38:59;;;;;;;6.00;4.60;;;;;;;15.44;65.15;100002.25;105753;1274;24793;-78
2022/09/13 08:41:38;;;;;;;5.80;3.70;;;;;;;15.53;64.78;100001.94;105741;1276;22794;-79
2022/09/13 08:44:09;;;;;;;6.90;3.10;;;;;;;15.67;64.29;100002.48;105892;1276;22560;-75
2022/09/13 08:46:43;;;;;;;4.00;3.40;;;;;;;15.83;63.57;100000.33;105873;1275;22753;-81
2022/09/13 08:49:29;;;;;;;5.90;2.70;;;;;;;15.92;62.37;100001.58;105845;1276;22658;-80
2022/09/13 08:52:24;;;;;;;10.10;2.80;;;;;;;16.05;61.92;100004.84;105763;1275;22560;-81
2022/09/13 08:54:52;;;;;;;7.30;2.50;;;;;;;16.09;61.07;99995.63;105765;1276;25442;-77
2022/09/13 08:57:37;;;;;;;4.40;2.50;;;;;;;16.17;60.78;100000.14;105790;1274;22532;-79
2022/09/13 09:00:19;;;;;;;2.90;2.40;;;;;;;16.28;60.69;99997.07;105751;1276;24650;-80
2022/09/13 09:03:20;;;;;;;2.60;2.40;;;;;;;16.37;59.82;99988.90;105978;1276;22568;-81
2022/09/13 09:05:51;;;;;;;4.60;2.30;;;;;;;16.46;58.79;99988.71;105969;1273;25238;-79
2022/09/13 09:08:37;;;;;;;2.30;2.10;;;;;;;16.45;58.69;99989.61;105915;1276;24422;-77
2022/09/13 09:11:20;;;;;;;2.80;2.50;;;;;;;16.48;58.40;99991.66;105888;1276;23007;-78
2022/09/13 09:14:06;;;;;;;4.60;2.30;;;;;;;16.49;58.34;99983.81;105746;1275;24251;-78
2022/09/13 09:16:35;;;;;;;2.60;2.40;;;;;;;16.49;58.05;99981.30;106084;1276;23978;-78
2022/09/13 09:19:15;;;;;;;2.70;2.40;;;;;;;16.48;57.87;99979.73;105837;1276;22566;-79
2022/09/13 09:21:46;;;;;;;3.10;1.80;;;;;;;16.47;57.26;99978.36;106026;1276;25304;-79
2022/09/13 09:24:24;;;;;;;2.90;1.90;;;;;;;16.51;57.44;99973.59;105733;1276;22528;-79
2022/09/13 09:26:57;;;;;;;3.70;2.00;;;;;;;16.61;57.53;99970.51;105676;1276;24228;-78
2022/09/13 09:29:31;;;;;;;4.00;1.90;;;;;;;16.74;57.30;99969.62;106006;1275;22601;-78
2022/09/13 09:32:20;;;;;;;2.70;1.90;;;;;;;16.77;56.64;99963.64;106058;1274;24394;-80
2022/09/13 09:35:19;;;;;;;5.30;2.00;;;;;;;16.86;56.66;99959.70;105881;1276;22559;-80
2022/09/13 09:38:03;;;;;;;1.80;1.70;;;;;;;17.01;56.04;99958.73;105886;1276;22534;-76
2022/09/13 09:40:32;;;;;;;5.80;2.40;;;;;;;17.09;55.74;99961.25;105977;1276;22722;-81
2022/09/13 09:43:01;;;;;;;8.10;1.80;;;;;;;17.13;55.96;99950.05;106047;1276;22566;-75
2022/09/13 09:45:33;;;;;;;3.90;2.00;;;;;;;17.25;55.95;99951.13;106027;1276;24112;-77
2022/09/13 09:48:08;;;;;;;2.20;2.00;;;;;;;17.36;55.81;99950.50;105931;1276;22568;-76
2022/09/13 09:50:43;;;;;;;2.00;1.80;;;;;;;17.41;55.27;99950.27;105839;1274;24215;-80
2022/09/13 09:53:25;;;;;;;5.50;2.30;;;;;;;17.34;54.44;99944.88;105949;1276;22620;-80
2022/09/13 09:56:04;;;;;;;3.10;2.10;;;;;;;17.32;54.58;99939.45;105908;1276;22729;-78
2022/09/13 09:58:44;;;;;;;3.00;1.90;;;;;;;17.45;55.49;99934.45;106098;1276;22558;-79
2022/09/13 10:01:27;;;;;;;3.00;2.20;;;;;;;17.62;55.15;99934.39;106063;1276;23227;-80
2022/09/13 10:04:10;;;;;;;5.70;1.80;;;;;;;17.78;54.88;99928.30;105833;1276;25610;-79
2022/09/13 10:06:42;;;;;;;2.40;2.00;;;;;;;17.91;54.19;99922.73;105894;1276;25594;-79
2022/09/13 10:09:12;;;;;;;2.10;1.70;;;;;;;18.04;54.25;99918.19;105961;1275;25521;-79
2022/09/13 10:11:58;;;;;;;2.90;1.90;;;;;;;18.17;53.74;99915.80;105936;1276;22617;-80
2022/09/13 10:14:37;;;;;;;3.80;2.20;;;;;;;18.29;53.92;99914.86;105754;1276;22525;-79
2022/09/13 10:17:20;;;;;;;3.60;1.90;;;;;;;18.39;54.06;99914.05;105735;1276;22710;-78
2022/09/13 10:20:00;;;;;;;2.60;1.80;;;;;;;18.35;53.25;99912.46;105937;1276;23763;-79
2022/09/13 10:22:29;;;;;;;2.20;1.60;;;;;;;18.26;53.60;99913.96;106048;1276;25373;-79
2022/09/13 10:25:22;;;;;;;4.40;2.30;;;;;;;18.25;53.71;99915.41;105805;1276;24320;-80
2022/09/13 10:27:56;;;;;;;2.00;1.80;;;;;;;18.23;53.02;99912.87;105942;1276;22541;-77
2022/09/13 10:30:44;;;;;;;3.60;2.40;;;;;;;18.24;52.94;99907.11;105965;1276;24441;-78
2022/09/13 10:33:49;;;;;;;2.90;1.90;;;;;;;18.24;52.48;99908.91;105779;1278;23322;-78
2022/09/13 10:36:20;;;;;;;3.80;2.00;;;;;;;18.25;52.98;99896.55;105590;1275;22546;-78
2022/09/13 10:39:20;;;;;;;2.40;2.00;;;;;;;18.33;52.88;99892.62;106026;1275;25469;-79
2022/09/13 10:41:57;;;;;;;3.40;1.90;;;;;;;18.35;52.77;99893.73;105683;1276;24285;-77
2022/09/13 10:44:45;;;;;;;3.60;1.60;;;;;;;18.36;52.58;99892.30;105961;1275;23485;-79
2022/09/13 10:47:18;;;;;;;2.80;1.80;;;;;;;18.30;52.09;99889.52;105883;1274;22572;-80
2022/09/13 10:49:51;;;;;;;3.60;1.50;;;;;;;18.31;52.03;99886.96;105782;1274;22601;-77
2022/09/13 10:52:27;;;;;;;2.10;1.90;;;;;;;18.40;51.96;99882.29;105815;1276;24090;-80
2022/09/13 10:54:55;;;;;;;2.50;1.80;;;;;;;18.45;51.56;99876.85;105827;1276;22541;-79
2022/09/13 10:57:36;;;;;;;2.70;1.80;;;;;;;18.57;51.94;99879.67;105787;1274;25221;-78
2022/09/13 11:00:10;;;;;;;2.90;1.40;;;;;;;18.55;51.79;99879.02;105739;1276;22623;-79
2022/09/13 11:02:43;;;;;;;4.60;1.90;;;;;;;18.59;52.22;99879.41;105866;1276;22544;-81
2022/09/13 11:05:21;;;;;;;2.80;1.90;;;;;;;18.62;52.35;99883.14;105929;1276;22535;-79
2022/09/13 11:08:20;;;;;;;3.20;1.90;;;;;;;18.69;52.31;99879.41;106054;1275;22502;-77
2022/09/13 11:11:24;;;;;;;1.80;1.60;;;;;;;18.75;51.53;99876.61;105988;1276;24461;-80
2022/09/13 11:14:02;;;;;;;2.10;1.50;;;;;;;18.79;51.63;99871.73;105915;1276;22557;-81
2022/09/13 11:16:48;;;;;;;2.30;1.60;;;;;;;18.85;51.75;99870.39;105973;1276;22590;-83
2022/09/13 11:19:20;;;;;;;2.30;2.00;;;;;;;18.91;51.66;99865.23;106372;1275;23716;-75
2022/09/13 11:21:50;;;;;;;4.90;2.20;;;;;;;18.89;51.02;99867.48;106568;1276;23002;-78
2022/09/13 11:24:44;;;;;;;2.90;2.00;;;;;;;18.68;51.01;99865.37;106439;1276;22616;-77
2022/09/13 11:27:27;;;;;;;2.20;1.70;;;;;;;18.52;51.52;99857.02;106197;1274;22534;-81
2022/09/13 11:30:29;;;;;;;2.70;2.10;;;;;;;18.45;51.91;99859.38;106063;1276;22574;-76
2022/09/13 11:33:20;;;;;;;3.10;2.10;;;;;;;18.42;52.16;99860.58;106460;1276;22627;-77
2022/09/13 11:35:52;;;;;;;4.20;2.10;;;;;;;18.44;52.04;99855.34;106742;1276;25256;-76
2022/09/13 11:39:00;;;;;;;2.00;1.80;;;;;;;18.47;52.13;99851.98;106734;1276;22591;-78
2022/09/13 11:41:52;;;;;;;3.10;1.90;;;;;;;18.61;52.38;99852.50;106066;1274;22676;-79
2022/09/13 11:44:30;;;;;;;2.80;2.10;;;;;;;18.72;52.16;99846.77;106235;1276;24527;-79
2022/09/13 11:47:15;;;;;;;3.10;1.90;;;;;;;18.73;51.72;99848.15;106001;1276;24821;-74
2022/09/13 11:49:48;;;;;;;2.50;1.90;;;;;;;18.68;52.07;99841.84;106009;1275;22541;-77
2022/09/13 11:52:51;;;;;;;2.70;2.30;;;;;;;18.70;52.33;99836.00;105985;1276;22546;-78